Time;durP1;ratioP1;P1;durP2;ratioP2;P2;SDS_P1;SDS_P2;PMS_P1;PMS_P2;Temp;Humidity;BMP_temperature;BMP_pressure;BME280_temperature;BME280_humidity;BME280_pressure;Samples;Min_cycle;Max_cycle;Signal;HPM_P1;HPM_P2
2022/07/22 00:01:50;;;;;;;27.35;5.50;;;;;;;;;;5037538;28;20044;-82
2022/07/22 00:04:16;;;;;;;19.77;5.15;;;;;;;;;;5024180;28;20449;-82
2022/07/22 00:06:43;;;;;;;28.30;6.47;;;;;;;;;;5047593;28;20056;-81
2022/07/22 00:09:09;;;;;;;23.25;6.03;;;;;;;;;;5028523;28;20041;-83
2022/07/22 00:11:36;;;;;;;20.83;5.88;;;;;;;;;;5047671;28;20081;-80
2022/07/22 00:14:02;;;;;;;25.30;6.00;;;;;;;;;;5001904;28;20124;-82
2022/07/22 00:16:38;;;;;;;14.77;5.53;;;;;;;;;;5043434;28;20044;-82
2022/07/22 00:19:04;;;;;;;18.13;5.93;;;;;;;;;;5047796;28;20431;-81
2022/07/22 00:21:31;;;;;;;28.75;4.68;;;;;;;;;;5043767;28;20466;-83
2022/07/22 00:23:57;;;;;;;14.68;4.15;;;;;;;;;;5030562;28;20516;-82
2022/07/22 00:26:23;;;;;;;26.42;5.35;;;;;;;;;;5041944;28;20075;-81
2022/07/22 00:28:49;;;;;;;20.17;4.35;;;;;;;;;;5043112;28;20037;-78
2022/07/22 00:31:15;;;;;;;23.10;4.68;;;;;;;;;;5012304;28;20586;-78
2022/07/22 00:33:42;;;;;;;20.75;4.75;;;;;;;;;;5008321;28;20052;-82
2022/07/22 00:36:08;;;;;;;22.45;4.80;;;;;;;;;;5039208;28;20443;-83
2022/07/22 00:38:35;;;;;;;19.27;3.72;;;;;;;;;;5021049;28;20041;-79
2022/07/22 00:41:01;;;;;;;23.83;3.97;;;;;;;;;;5041787;28;20261;-81
2022/07/22 00:43:27;;;;;;;19.17;3.85;;;;;;;;;;5040392;28;20051;-80
2022/07/22 00:45:53;;;;;;;15.45;4.10;;;;;;;;;;4990011;28;20472;-78
2022/07/22 00:48:19;;;;;;;18.40;3.67;;;;;;;;;;5041248;28;20052;-81
2022/07/22 00:50:46;;;;;;;12.85;4.10;;;;;;;;;;5034804;28;20602;-79
2022/07/22 00:53:12;;;;;;;14.98;3.70;;;;;;;;;;5004099;28;20037;-81
2022/07/22 00:55:41;;;;;;;19.60;3.35;;;;;;;;;;5017480;28;20859;-79
2022/07/22 00:58:07;;;;;;;18.65;3.60;;;;;;;;;;5046884;28;20047;-81
2022/07/22 01:00:33;;;;;;;16.20;4.30;;;;;;;;;;5046514;28;20057;-81
2022/07/22 01:03:06;;;;;;;18.00;4.00;;;;;;;;;;5021417;28;20037;-80
2022/07/22 01:05:32;;;;;;;17.98;4.05;;;;;;;;;;5040923;28;20508;-81
2022/07/22 01:07:58;;;;;;;8.45;3.45;;;;;;;;;;5038189;28;20405;-79
2022/07/22 01:10:24;;;;;;;19.77;3.97;;;;;;;;;;5040842;28;20096;-80
2022/07/22 01:12:50;;;;;;;12.38;3.45;;;;;;;;;;5038330;28;20037;-80
2022/07/22 01:15:19;;;;;;;13.23;4.90;;;;;;;;;;5042715;28;20044;-79
2022/07/22 01:25:09;;;;;;;17.52;4.57;;;;;;;;;;5006737;28;20089;-79
2022/07/22 01:27:35;;;;;;;14.18;3.55;;;;;;;;;;4996117;28;20089;-80
2022/07/22 01:30:01;;;;;;;15.73;3.70;;;;;;;;;;4992291;28;21538;-80
2022/07/22 01:32:27;;;;;;;23.85;4.28;;;;;;;;;;4990692;28;20478;-80
2022/07/22 01:34:53;;;;;;;15.13;3.15;;;;;;;;;;4987683;28;20589;-82
2022/07/22 01:37:25;;;;;;;15.95;3.92;;;;;;;;;;4987904;28;20092;-82
2022/07/22 01:39:51;;;;;;;18.52;4.80;;;;;;;;;;4977429;28;20045;-79
2022/07/22 01:42:18;;;;;;;13.77;2.95;;;;;;;;;;4995674;28;20030;-79
2022/07/22 01:44:44;;;;;;;14.75;3.47;;;;;;;;;;4990912;28;20513;-78
2022/07/22 01:47:10;;;;;;;19.17;5.35;;;;;;;;;;4996502;28;20045;-79
2022/07/22 01:49:36;;;;;;;11.82;3.75;;;;;;;;;;5004514;28;20140;-79
2022/07/22 01:52:03;;;;;;;15.65;3.45;;;;;;;;;;5003438;28;21865;-81
2022/07/22 01:54:30;;;;;;;20.08;3.70;;;;;;;;;;4999712;28;20042;-81
2022/07/22 01:56:56;;;;;;;12.75;2.55;;;;;;;;;;4999994;28;20061;-79
2022/07/22 01:59:22;;;;;;;15.43;2.50;;;;;;;;;;5004487;28;20209;-80
2022/07/22 02:01:48;;;;;;;13.05;2.50;;;;;;;;;;5006664;28;20041;-79
2022/07/22 02:04:14;;;;;;;16.23;2.92;;;;;;;;;;5005758;28;21026;-81
2022/07/22 02:06:40;;;;;;;12.25;2.83;;;;;;;;;;5021746;28;20097;-79
2022/07/22 02:09:07;;;;;;;10.77;2.63;;;;;;;;;;4997929;28;20034;-80
2022/07/22 02:11:34;;;;;;;13.73;2.70;;;;;;;;;;4979781;28;20458;-80
2022/07/22 02:14:00;;;;;;;14.55;3.10;;;;;;;;;;5004863;28;20495;-79
2022/07/22 02:16:26;;;;;;;15.27;3.35;;;;;;;;;;5005552;28;20425;-79
2022/07/22 02:18:52;;;;;;;15.57;3.00;;;;;;;;;;4987664;28;20401;-80
2022/07/22 02:21:22;;;;;;;13.75;2.80;;;;;;;;;;5005330;28;20144;-79
2022/07/22 02:23:48;;;;;;;10.75;2.30;;;;;;;;;;5009938;28;20122;-81
2022/07/22 02:26:14;;;;;;;9.15;2.10;;;;;;;;;;5039317;28;20063;-79
2022/07/22 02:28:41;;;;;;;11.82;3.03;;;;;;;;;;5039471;28;20037;-79
2022/07/22 02:31:07;;;;;;;7.05;2.42;;;;;;;;;;5036763;28;20128;-79
2022/07/22 02:33:33;;;;;;;7.72;2.00;;;;;;;;;;5045497;28;20052;-80
2022/07/22 02:36:00;;;;;;;8.90;2.03;;;;;;;;;;5035047;28;20044;-78
2022/07/22 02:38:26;;;;;;;9.63;3.00;;;;;;;;;;5038642;28;20071;-80
2022/07/22 02:40:53;;;;;;;12.52;2.40;;;;;;;;;;5036142;28;20037;-80
2022/07/22 02:43:19;;;;;;;10.57;2.83;;;;;;;;;;5043263;28;20045;-79
2022/07/22 02:45:45;;;;;;;10.93;2.38;;;;;;;;;;5041614;28;20099;-78
2022/07/22 02:48:12;;;;;;;11.85;3.25;;;;;;;;;;5036234;28;20371;-79
2022/07/22 02:50:38;;;;;;;4.88;2.03;;;;;;;;;;5038363;28;20199;-81
2022/07/22 02:53:05;;;;;;;10.40;2.80;;;;;;;;;;5045032;28;20045;-82
2022/07/22 02:55:31;;;;;;;11.10;2.58;;;;;;;;;;5043249;28;20064;-81
2022/07/22 02:57:57;;;;;;;14.55;2.67;;;;;;;;;;5042221;28;20041;-79
2022/07/22 03:00:23;;;;;;;12.52;2.53;;;;;;;;;;5036751;28;20053;-81
2022/07/22 03:02:50;;;;;;;11.70;2.42;;;;;;;;;;5035883;28;20029;-81
2022/07/22 03:05:16;;;;;;;10.77;2.00;;;;;;;;;;5040013;28;20083;-79
2022/07/22 03:07:42;;;;;;;8.70;2.38;;;;;;;;;;5044303;28;20036;-81
2022/07/22 03:10:24;;;;;;;8.90;2.35;;;;;;;;;;5041812;28;20041;-81
2022/07/22 03:12:51;;;;;;;12.95;2.42;;;;;;;;;;5024414;28;20063;-80
2022/07/22 03:15:17;;;;;;;10.70;2.38;;;;;;;;;;5041696;28;20460;-79
2022/07/22 03:17:43;;;;;;;7.85;2.17;;;;;;;;;;5042860;28;20049;-79
2022/07/22 03:20:10;;;;;;;12.10;2.45;;;;;;;;;;5032072;28;20048;-79
2022/07/22 03:22:36;;;;;;;10.02;2.58;;;;;;;;;;5037009;28;20072;-80
2022/07/22 03:25:03;;;;;;;8.25;2.55;;;;;;;;;;5043776;28;20060;-79
2022/07/22 03:27:29;;;;;;;7.28;2.55;;;;;;;;;;5044979;28;20049;-79
2022/07/22 03:29:55;;;;;;;8.52;2.15;;;;;;;;;;5035004;28;20033;-79
2022/07/22 03:32:22;;;;;;;15.35;3.67;;;;;;;;;;5031310;28;20052;-79
2022/07/22 03:34:48;;;;;;;9.85;2.92;;;;;;;;;;5031621;28;20033;-79
2022/07/22 03:37:14;;;;;;;16.88;3.22;;;;;;;;;;5021100;28;20128;-77
2022/07/22 03:39:40;;;;;;;9.43;2.60;;;;;;;;;;5036628;28;20056;-79
2022/07/22 03:42:06;;;;;;;13.82;3.00;;;;;;;;;;5043178;28;20048;-81
2022/07/22 03:44:32;;;;;;;7.68;2.50;;;;;;;;;;5040732;28;20718;-80
2022/07/22 03:46:58;;;;;;;13.13;2.65;;;;;;;;;;5041051;28;20499;-81
2022/07/22 03:49:24;;;;;;;15.10;2.72;;;;;;;;;;5034314;28;20053;-81
2022/07/22 03:51:50;;;;;;;9.40;2.42;;;;;;;;;;5035714;28;20037;-81
2022/07/22 03:54:17;;;;;;;10.73;2.60;;;;;;;;;;5023419;28;20040;-81
2022/07/22 03:56:43;;;;;;;13.70;2.55;;;;;;;;;;5042140;28;20417;-80
2022/07/22 03:59:09;;;;;;;7.65;2.20;;;;;;;;;;5039469;28;20041;-80
2022/07/22 04:01:35;;;;;;;8.98;2.13;;;;;;;;;;5003199;28;20200;-81
2022/07/22 04:04:02;;;;;;;10.40;2.55;;;;;;;;;;5031922;28;20055;-82
2022/07/22 04:06:34;;;;;;;7.55;2.45;;;;;;;;;;5034920;28;20083;-80
2022/07/22 04:09:24;;;;;;;6.85;2.03;;;;;;;;;;5034828;28;20045;-79
2022/07/22 04:11:51;;;;;;;7.88;2.42;;;;;;;;;;5038801;28;20497;-81
2022/07/22 04:14:18;;;;;;;7.78;2.10;;;;;;;;;;5036197;28;20037;-82
2022/07/22 04:16:44;;;;;;;8.05;2.17;;;;;;;;;;5034836;28;20433;-80
2022/07/22 04:19:10;;;;;;;11.80;2.13;;;;;;;;;;5022944;28;20755;-79
2022/07/22 04:21:37;;;;;;;8.63;2.10;;;;;;;;;;5041611;22;20048;-81
2022/07/22 04:24:03;;;;;;;8.10;1.98;;;;;;;;;;5076328;28;20059;-78
2022/07/22 04:26:29;;;;;;;6.10;1.75;;;;;;;;;;5080965;28;20061;-81
2022/07/22 04:28:55;;;;;;;7.45;1.80;;;;;;;;;;5085098;28;20028;-80
2022/07/22 04:31:23;;;;;;;8.80;2.30;;;;;;;;;;5080123;28;20052;-79
2022/07/22 04:33:49;;;;;;;7.90;2.10;;;;;;;;;;5056107;28;20074;-78
2022/07/22 04:36:15;;;;;;;13.80;2.20;;;;;;;;;;5092477;28;20345;-80
2022/07/22 04:38:41;;;;;;;10.60;2.25;;;;;;;;;;5080750;28;20044;-77
2022/07/22 04:41:07;;;;;;;8.18;1.95;;;;;;;;;;5058332;28;20074;-78
2022/07/22 04:43:46;;;;;;;9.00;1.88;;;;;;;;;;5071766;28;20059;-78
2022/07/22 04:46:12;;;;;;;7.15;2.03;;;;;;;;;;5047971;28;20040;-80
2022/07/22 04:48:38;;;;;;;9.27;2.13;;;;;;;;;;5077808;28;20075;-80
2022/07/22 04:51:04;;;;;;;12.27;1.83;;;;;;;;;;5073330;28;20036;-80
2022/07/22 04:53:30;;;;;;;11.02;1.75;;;;;;;;;;5062637;28;20162;-80
2022/07/22 04:55:56;;;;;;;9.48;1.88;;;;;;;;;;5064295;28;20927;-79
2022/07/22 04:58:22;;;;;;;9.57;1.88;;;;;;;;;;5084720;28;20082;-78
2022/07/22 05:00:49;;;;;;;6.65;1.65;;;;;;;;;;5072697;28;20036;-78
2022/07/22 05:03:24;;;;;;;5.75;1.35;;;;;;;;;;5078020;28;20035;-79
2022/07/22 05:05:50;;;;;;;6.00;1.90;;;;;;;;;;5044059;28;20091;-79
2022/07/22 05:08:16;;;;;;;11.02;2.30;;;;;;;;;;5074066;28;20488;-78
2022/07/22 05:10:42;;;;;;;6.22;1.83;;;;;;;;;;5082978;28;20051;-78
2022/07/22 05:13:08;;;;;;;10.75;2.25;;;;;;;;;;5068536;28;20048;-78
2022/07/22 05:15:34;;;;;;;9.13;2.05;;;;;;;;;;5082031;28;20048;-77
2022/07/22 05:18:00;;;;;;;6.80;2.13;;;;;;;;;;5078472;28;20059;-78
2022/07/22 05:20:27;;;;;;;8.10;2.20;;;;;;;;;;5084314;28;20063;-79
2022/07/22 05:22:53;;;;;;;5.50;1.63;;;;;;;;;;5040677;28;20353;-78
2022/07/22 05:25:19;;;;;;;10.23;2.35;;;;;;;;;;5041441;28;20094;-80
2022/07/22 05:27:52;;;;;;;6.22;1.80;;;;;;;;;;5039746;28;20055;-78
2022/07/22 05:30:18;;;;;;;15.65;2.30;;;;;;;;;;5041008;28;20045;-77
2022/07/22 05:32:44;;;;;;;8.27;1.77;;;;;;;;;;5045395;28;20041;-78
2022/07/22 05:35:10;;;;;;;9.82;1.85;;;;;;;;;;5014435;28;20045;-79
2022/07/22 05:37:37;;;;;;;6.53;1.60;;;;;;;;;;5047051;28;20041;-79
2022/07/22 05:40:03;;;;;;;9.57;2.22;;;;;;;;;;5045164;28;20045;-79
2022/07/22 05:42:29;;;;;;;7.70;2.30;;;;;;;;;;5028874;28;20481;-81
2022/07/22 05:44:55;;;;;;;8.65;1.75;;;;;;;;;;5049289;28;20534;-79
2022/07/22 05:47:22;;;;;;;7.30;2.35;;;;;;;;;;5047988;28;20045;-79
2022/07/22 05:49:48;;;;;;;8.43;1.70;;;;;;;;;;5050223;28;20505;-80
2022/07/22 05:52:14;;;;;;;4.43;1.83;;;;;;;;;;5050205;28;20491;-80
2022/07/22 05:54:41;;;;;;;4.78;1.83;;;;;;;;;;5044684;28;20064;-81
2022/07/22 05:57:10;;;;;;;7.57;1.67;;;;;;;;;;5029404;28;20079;-79
2022/07/22 05:59:37;;;;;;;6.03;1.58;;;;;;;;;;5044886;28;20067;-79
2022/07/22 06:02:04;;;;;;;7.10;1.50;;;;;;;;;;5045640;28;20072;-79
2022/07/22 06:04:30;;;;;;;9.02;1.70;;;;;;;;;;5044153;28;20033;-79
2022/07/22 06:06:56;;;;;;;5.80;1.63;;;;;;;;;;5042473;28;20465;-81
2022/07/22 06:09:22;;;;;;;9.05;1.92;;;;;;;;;;5045472;28;20202;-81
2022/07/22 06:11:48;;;;;;;10.43;2.10;;;;;;;;;;5043612;28;20044;-79
2022/07/22 06:14:14;;;;;;;6.63;2.00;;;;;;;;;;5043899;28;20067;-79
2022/07/22 06:16:41;;;;;;;6.03;1.55;;;;;;;;;;5043061;28;20033;-77
2022/07/22 06:19:07;;;;;;;6.40;1.75;;;;;;;;;;5044005;28;20052;-78
2022/07/22 06:21:33;;;;;;;6.30;1.73;;;;;;;;;;5054378;28;20048;-78
2022/07/22 06:23:59;;;;;;;7.45;1.70;;;;;;;;;;5080252;28;20048;-79
2022/07/22 06:26:25;;;;;;;4.13;1.25;;;;;;;;;;5064429;28;20518;-79
2022/07/22 06:28:51;;;;;;;8.77;1.63;;;;;;;;;;5041349;28;20651;-80
2022/07/22 06:31:17;;;;;;;7.30;1.88;;;;;;;;;;5074757;28;20500;-79
2022/07/22 06:33:44;;;;;;;3.92;1.23;;;;;;;;;;5059670;28;20064;-79
2022/07/22 06:36:11;;;;;;;5.75;1.58;;;;;;;;;;5061183;28;20057;-78
2022/07/22 06:38:40;;;;;;;3.60;1.10;;;;;;;;;;5043938;28;20084;-79
2022/07/22 06:41:06;;;;;;;8.88;2.38;;;;;;;;;;5040952;28;20040;-80
2022/07/22 06:43:32;;;;;;;7.55;1.63;;;;;;;;;;5063649;28;20036;-78
2022/07/22 06:46:02;;;;;;;11.00;1.60;;;;;;;;;;5046686;28;20097;-78
2022/07/22 06:48:28;;;;;;;4.15;1.08;;;;;;;;;;5060572;28;20043;-78
2022/07/22 06:50:54;;;;;;;3.13;1.08;;;;;;;;;;5056820;28;20765;-78
2022/07/22 06:53:20;;;;;;;7.20;1.35;;;;;;;;;;5058291;28;20530;-78
2022/07/22 06:55:46;;;;;;;6.10;1.30;;;;;;;;;;5054712;28;20079;-78
2022/07/22 06:58:13;;;;;;;5.90;1.48;;;;;;;;;;5058427;28;20140;-79
2022/07/22 07:00:39;;;;;;;5.07;1.50;;;;;;;;;;5048932;28;20039;-79
2022/07/22 07:03:05;;;;;;;10.85;1.60;;;;;;;;;;5083821;28;20043;-80
2022/07/22 07:05:31;;;;;;;4.53;1.30;;;;;;;;;;5082012;28;20130;-78
2022/07/22 07:07:57;;;;;;;9.43;1.38;;;;;;;;;;5082645;28;20155;-78
2022/07/22 07:10:23;;;;;;;8.50;1.30;;;;;;;;;;5084293;28;20048;-79
2022/07/22 07:12:49;;;;;;;6.90;1.40;;;;;;;;;;5079066;28;20094;-79
2022/07/22 07:15:19;;;;;;;4.20;1.10;;;;;;;;;;5063640;28;20040;-79
2022/07/22 07:17:56;;;;;;;10.10;1.33;;;;;;;;;;5081640;28;20118;-79
2022/07/22 07:20:22;;;;;;;9.95;1.23;;;;;;;;;;5081790;28;20052;-79
2022/07/22 07:22:48;;;;;;;9.82;1.23;;;;;;;;;;5080180;28;20514;-78
2022/07/22 07:25:15;;;;;;;10.68;1.60;;;;;;;;;;5063214;28;20080;-78
2022/07/22 07:27:41;;;;;;;10.80;2.05;;;;;;;;;;5058571;28;20052;-78
2022/07/22 07:30:10;;;;;;;13.50;1.15;;;;;;;;;;5080633;28;20168;-79
2022/07/22 07:39:20;;;;;;;7.28;1.25;;;;;;;;;;5087738;28;20061;-80
2022/07/22 07:41:51;;;;;;;6.28;1.15;;;;;;;;;;5072168;28;20116;-82
2022/07/22 07:44:17;;;;;;;4.18;1.48;;;;;;;;;;5072224;28;20066;-82
2022/07/22 07:46:50;;;;;;;6.32;1.58;;;;;;;;;;5099097;28;20099;-79
2022/07/22 07:49:16;;;;;;;5.18;1.08;;;;;;;;;;5077920;28;20538;-80
2022/07/22 07:51:43;;;;;;;4.13;1.15;;;;;;;;;;5103183;28;20032;-81
2022/07/22 07:54:09;;;;;;;5.30;1.00;;;;;;;;;;5105590;28;20039;-82
2022/07/22 07:56:38;;;;;;;4.55;1.15;;;;;;;;;;5088435;28;20098;-82
2022/07/22 07:59:10;;;;;;;3.60;1.08;;;;;;;;;;5088112;28;20112;-81
2022/07/22 08:01:36;;;;;;;6.43;1.33;;;;;;;;;;5089168;28;20088;-82
2022/07/22 08:04:11;;;;;;;9.70;1.02;;;;;;;;;;5089714;28;21592;-83
2022/07/22 08:06:37;;;;;;;4.85;1.55;;;;;;;;;;5070723;28;20044;-81
2022/07/22 08:09:06;;;;;;;5.43;1.23;;;;;;;;;;5085500;28;20044;-82
2022/07/22 08:11:32;;;;;;;7.40;1.25;;;;;;;;;;5048922;28;20119;-80
2022/07/22 08:13:58;;;;;;;4.28;0.90;;;;;;;;;;5065251;28;20088;-79
2022/07/22 08:16:24;;;;;;;6.03;1.35;;;;;;;;;;5081892;28;20074;-80
2022/07/22 08:18:50;;;;;;;4.85;1.17;;;;;;;;;;5081538;28;20047;-79
2022/07/22 08:21:16;;;;;;;5.10;1.13;;;;;;;;;;5076984;28;20083;-81
2022/07/22 08:24:07;;;;;;;6.68;1.33;;;;;;;;;;5066304;28;20083;-82
2022/07/22 08:26:33;;;;;;;6.72;1.67;;;;;;;;;;5065665;28;20051;-81
2022/07/22 08:28:59;;;;;;;4.57;1.13;;;;;;;;;;5085630;28;20577;-82
2022/07/22 08:31:27;;;;;;;3.85;1.45;;;;;;;;;;5083356;28;20064;-82
2022/07/22 08:33:53;;;;;;;5.43;1.25;;;;;;;;;;5084056;28;20037;-79
2022/07/22 08:36:19;;;;;;;5.07;1.08;;;;;;;;;;5061735;28;20040;-80
2022/07/22 08:38:45;;;;;;;10.20;2.10;;;;;;;;;;5079973;28;20187;-80
2022/07/22 08:41:13;;;;;;;5.43;0.90;;;;;;;;;;5085881;28;20044;-80
2022/07/22 08:43:44;;;;;;;9.00;1.48;;;;;;;;;;5083979;28;20039;-79
2022/07/22 08:46:10;;;;;;;6.93;1.90;;;;;;;;;;5083160;28;20423;-80
2022/07/22 08:48:39;;;;;;;3.85;1.35;;;;;;;;;;5063378;28;20051;-80
2022/07/22 08:51:06;;;;;;;8.20;1.30;;;;;;;;;;5063101;28;20335;-80
2022/07/22 08:53:32;;;;;;;3.88;1.60;;;;;;;;;;5061817;28;20062;-80
2022/07/22 08:55:59;;;;;;;4.32;0.90;;;;;;;;;;5077729;28;20045;-80
2022/07/22 08:58:25;;;;;;;6.85;1.42;;;;;;;;;;5077218;28;20040;-80
2022/07/22 09:01:05;;;;;;;4.70;1.38;;;;;;;;;;5082244;28;20123;-79
2022/07/22 09:03:31;;;;;;;5.13;1.02;;;;;;;;;;5071501;28;20044;-80
2022/07/22 09:05:57;;;;;;;3.53;0.90;;;;;;;;;;5076975;28;20049;-79
2022/07/22 09:08:26;;;;;;;3.30;1.45;;;;;;;;;;5078732;28;20162;-80
2022/07/22 09:10:58;;;;;;;4.70;1.40;;;;;;;;;;5062786;28;20124;-80
2022/07/22 09:13:24;;;;;;;8.32;1.02;;;;;;;;;;5065331;28;21356;-80
2022/07/22 09:15:52;;;;;;;8.32;1.75;;;;;;;;;;5076513;28;20055;-81
2022/07/22 09:18:19;;;;;;;3.67;1.30;;;;;;;;;;5087650;28;20044;-80
2022/07/22 09:20:45;;;;;;;3.83;1.23;;;;;;;;;;5063367;28;20391;-80
2022/07/22 09:23:12;;;;;;;5.32;1.20;;;;;;;;;;5084785;28;20047;-80
2022/07/22 09:25:39;;;;;;;5.00;1.10;;;;;;;;;;5066932;28;20093;-80
2022/07/22 09:28:05;;;;;;;5.03;1.00;;;;;;;;;;5052584;28;20102;-80
2022/07/22 09:30:32;;;;;;;5.38;1.05;;;;;;;;;;5085513;28;20040;-80
2022/07/22 09:32:58;;;;;;;6.15;1.70;;;;;;;;;;5069873;28;20043;-80
2022/07/22 09:35:52;;;;;;;5.90;1.42;;;;;;;;;;5070154;28;20079;-80
2022/07/22 09:38:19;;;;;;;3.27;0.87;;;;;;;;;;5077653;28;20040;-81
2022/07/22 09:40:46;;;;;;;4.00;1.00;;;;;;;;;;5090021;28;20339;-81
2022/07/22 09:43:17;;;;;;;6.05;1.17;;;;;;;;;;5070406;28;20043;-81
2022/07/22 09:45:47;;;;;;;4.05;1.27;;;;;;;;;;5089247;28;20044;-80
2022/07/22 09:48:20;;;;;;;11.93;1.50;;;;;;;;;;5070745;28;20048;-81
2022/07/22 09:50:46;;;;;;;1.92;0.80;;;;;;;;;;5087523;28;20048;-81
2022/07/22 09:53:13;;;;;;;3.92;1.23;;;;;;;;;;5088546;28;20048;-82
2022/07/22 09:55:40;;;;;;;4.88;1.20;;;;;;;;;;5088306;28;20032;-81
2022/07/22 09:58:07;;;;;;;5.15;1.35;;;;;;;;;;5089599;28;20097;-82
2022/07/22 10:00:34;;;;;;;4.32;1.10;;;;;;;;;;5084678;28;21139;-81
2022/07/22 10:03:01;;;;;;;5.03;1.00;;;;;;;;;;5070938;28;20104;-79
2022/07/22 10:05:34;;;;;;;6.15;1.10;;;;;;;;;;5088213;28;20052;-81
2022/07/22 10:08:02;;;;;;;4.93;1.13;;;;;;;;;;5070830;28;20549;-81
2022/07/22 10:10:29;;;;;;;2.72;0.90;;;;;;;;;;5089697;28;20095;-81
2022/07/22 10:12:56;;;;;;;4.00;1.17;;;;;;;;;;5058449;28;20071;-80
2022/07/22 10:15:23;;;;;;;4.47;1.20;;;;;;;;;;5089593;28;20055;-80
2022/07/22 10:17:51;;;;;;;6.00;0.93;;;;;;;;;;5090082;28;20097;-83
2022/07/22 10:20:18;;;;;;;10.65;1.50;;;;;;;;;;5058221;28;20496;-81
2022/07/22 10:22:49;;;;;;;9.18;1.38;;;;;;;;;;5088355;28;20048;-81
2022/07/22 10:25:40;;;;;;;8.77;1.48;;;;;;;;;;5090107;28;20093;-79
2022/07/22 10:28:07;;;;;;;10.63;1.42;;;;;;;;;;5086118;28;20044;-81
2022/07/22 10:30:35;;;;;;;7.20;1.33;;;;;;;;;;5074929;28;20070;-80
2022/07/22 10:33:15;;;;;;;6.13;1.52;;;;;;;;;;5092008;28;20059;-81
2022/07/22 10:35:43;;;;;;;10.57;1.30;;;;;;;;;;5093249;28;20040;-80
2022/07/22 10:38:11;;;;;;;5.25;1.17;;;;;;;;;;5075134;28;21098;-82
2022/07/22 10:40:56;;;;;;;6.13;1.23;;;;;;;;;;5091841;28;20039;-80
2022/07/22 10:43:25;;;;;;;8.38;1.60;;;;;;;;;;5069289;28;20424;-79
2022/07/22 10:46:06;;;;;;;4.78;1.70;;;;;;;;;;5089078;28;20083;-79
2022/07/22 10:48:38;;;;;;;7.82;1.20;;;;;;;;;;5094660;28;20154;-79
2022/07/22 10:51:18;;;;;;;9.32;1.30;;;;;;;;;;5081153;28;20144;-80
2022/07/22 10:53:47;;;;;;;10.80;1.75;;;;;;;;;;5076231;28;20066;-80
2022/07/22 10:56:18;;;;;;;5.43;1.45;;;;;;;;;;5080784;28;20055;-80
2022/07/22 10:58:46;;;;;;;10.38;1.45;;;;;;;;;;5098347;28;20036;-80
2022/07/22 11:01:13;;;;;;;6.82;0.90;;;;;;;;;;5083221;28;20088;-79
2022/07/22 11:03:41;;;;;;;6.35;1.40;;;;;;;;;;5096761;28;20028;-78
2022/07/22 11:06:16;;;;;;;7.30;1.60;;;;;;;;;;5063456;28;20052;-80
2022/07/22 11:08:43;;;;;;;8.10;1.30;;;;;;;;;;5086332;28;20036;-80
2022/07/22 11:11:09;;;;;;;5.40;1.15;;;;;;;;;;5053275;28;20079;-81
2022/07/22 11:13:37;;;;;;;7.03;1.20;;;;;;;;;;5035517;28;20041;-80
2022/07/22 11:16:18;;;;;;;5.30;1.13;;;;;;;;;;5051938;28;20056;-79
2022/07/22 11:18:50;;;;;;;6.90;1.27;;;;;;;;;;5041737;28;20040;-79
2022/07/22 11:21:20;;;;;;;3.78;1.48;;;;;;;;;;5086398;28;20051;-81
2022/07/22 11:23:48;;;;;;;6.25;1.27;;;;;;;;;;5085641;28;20411;-80
2022/07/22 11:26:32;;;;;;;7.57;0.85;;;;;;;;;;5047969;28;20036;-80
2022/07/22 11:28:59;;;;;;;2.60;0.93;;;;;;;;;;5077746;28;20518;-80
2022/07/22 11:31:25;;;;;;;6.05;1.30;;;;;;;;;;5085959;28;20068;-80
2022/07/22 11:33:52;;;;;;;5.80;1.42;;;;;;;;;;5087739;28;20036;-81
2022/07/22 11:36:18;;;;;;;3.88;1.20;;;;;;;;;;5070132;28;20043;-79
2022/07/22 11:38:48;;;;;;;9.13;1.30;;;;;;;;;;5086447;28;20403;-79
2022/07/22 11:41:18;;;;;;;5.70;1.63;;;;;;;;;;5086108;28;20040;-80
2022/07/22 11:43:46;;;;;;;7.07;1.00;;;;;;;;;;5061087;28;20048;-80
2022/07/22 11:46:15;;;;;;;6.35;1.48;;;;;;;;;;5086073;28;20118;-79
2022/07/22 11:48:42;;;;;;;7.35;1.10;;;;;;;;;;5068903;28;20086;-81
2022/07/22 11:51:12;;;;;;;7.57;1.20;;;;;;;;;;5067603;28;20173;-80
2022/07/22 11:53:39;;;;;;;3.85;0.93;;;;;;;;;;5052891;28;20077;-80
2022/07/22 11:56:06;;;;;;;8.40;1.67;;;;;;;;;;5068085;28;20036;-80
2022/07/22 11:58:41;;;;;;;4.70;1.17;;;;;;;;;;5067157;28;20056;-80
2022/07/22 12:01:17;;;;;;;4.70;1.15;;;;;;;;;;5064635;28;20040;-80
2022/07/22 12:03:53;;;;;;;5.53;1.17;;;;;;;;;;5082813;28;20047;-80
2022/07/22 12:06:20;;;;;;;6.75;1.10;;;;;;;;;;5086172;28;20051;-81
2022/07/22 12:08:54;;;;;;;4.88;0.93;;;;;;;;;;5084989;28;20036;-80
2022/07/22 12:11:21;;;;;;;3.38;0.70;;;;;;;;;;5085836;28;20097;-81
2022/07/22 12:13:51;;;;;;;5.70;0.88;;;;;;;;;;5085193;28;20063;-79
2022/07/22 12:16:35;;;;;;;4.65;0.80;;;;;;;;;;5073571;28;20170;-79
2022/07/22 12:19:03;;;;;;;4.68;0.88;;;;;;;;;;5075853;28;20530;-81
2022/07/22 12:21:31;;;;;;;2.50;1.10;;;;;;;;;;5085624;28;20040;-81
2022/07/22 12:23:58;;;;;;;6.88;0.90;;;;;;;;;;5068065;28;20055;-80
2022/07/22 12:26:43;;;;;;;4.70;1.20;;;;;;;;;;5066724;28;20044;-79
2022/07/22 12:29:16;;;;;;;7.95;0.82;;;;;;;;;;5066000;28;20032;-79
2022/07/22 12:31:49;;;;;;;3.30;0.57;;;;;;;;;;5072825;28;20055;-79
2022/07/22 12:34:16;;;;;;;6.72;1.05;;;;;;;;;;5068066;28;20048;-80
2022/07/22 12:36:46;;;;;;;4.20;0.90;;;;;;;;;;5085328;28;20029;-80
2022/07/22 12:39:16;;;;;;;5.50;1.17;;;;;;;;;;5085124;28;20541;-80
2022/07/22 12:41:49;;;;;;;7.85;1.23;;;;;;;;;;5069932;28;20046;-79
2022/07/22 12:44:19;;;;;;;10.77;0.85;;;;;;;;;;5085699;28;20550;-80
2022/07/22 12:46:46;;;;;;;6.60;0.80;;;;;;;;;;5081795;28;20520;-79
2022/07/22 12:49:13;;;;;;;4.10;0.70;;;;;;;;;;5088502;28;20068;-79
2022/07/22 12:51:39;;;;;;;4.43;0.82;;;;;;;;;;5089600;28;20665;-79
2022/07/22 12:54:05;;;;;;;4.90;1.08;;;;;;;;;;5070843;28;20424;-80
2022/07/22 12:56:33;;;;;;;4.63;0.90;;;;;;;;;;5089733;28;20503;-80
2022/07/22 12:58:59;;;;;;;3.15;0.70;;;;;;;;;;5066054;28;20046;-81
2022/07/22 13:01:25;;;;;;;7.53;1.90;;;;;;;;;;5048933;28;20067;-79
2022/07/22 13:03:54;;;;;;;5.38;0.90;;;;;;;;;;5043017;28;20684;-79
2022/07/22 13:06:23;;;;;;;4.65;0.88;;;;;;;;;;5040947;28;20049;-79
2022/07/22 13:08:50;;;;;;;3.38;0.93;;;;;;;;;;5027713;28;20037;-79
2022/07/22 13:11:19;;;;;;;2.33;0.90;;;;;;;;;;5042867;28;20546;-79
2022/07/22 13:13:47;;;;;;;3.42;0.90;;;;;;;;;;5041510;28;20092;-79
2022/07/22 13:16:13;;;;;;;3.40;0.75;;;;;;;;;;5032413;28;20080;-79
2022/07/22 13:18:39;;;;;;;4.18;0.77;;;;;;;;;;5044907;28;20085;-79
2022/07/22 13:21:05;;;;;;;5.15;0.93;;;;;;;;;;5042908;28;20041;-80
2022/07/22 13:24:09;;;;;;;6.18;0.98;;;;;;;;;;5045196;28;20114;-80
2022/07/22 13:29:41;;;;;;;2.20;0.90;;;;;;;;;;5156850;22;20056;-79
2022/07/22 13:32:09;;;;;;;4.07;0.77;;;;;;;;;;5046683;28;20044;-81
2022/07/22 13:34:35;;;;;;;2.67;0.68;;;;;;;;;;5048219;28;20098;-80
2022/07/22 13:37:02;;;;;;;2.20;0.60;;;;;;;;;;5066184;28;20032;-80
2022/07/22 13:39:28;;;;;;;3.25;1.40;;;;;;;;;;5072633;28;20135;-80
2022/07/22 13:41:54;;;;;;;2.25;0.60;;;;;;;;;;5053441;28;20158;-80
2022/07/22 13:44:20;;;;;;;3.10;0.95;;;;;;;;;;5062690;28;20032;-80
2022/07/22 13:46:47;;;;;;;2.83;0.98;;;;;;;;;;5065781;28;20071;-81
2022/07/22 13:49:14;;;;;;;3.90;0.80;;;;;;;;;;5064002;28;20044;-80
2022/07/22 13:51:43;;;;;;;4.90;0.95;;;;;;;;;;5065686;28;20097;-81
2022/07/22 13:54:09;;;;;;;2.40;0.70;;;;;;;;;;5042400;28;20106;-81
2022/07/22 13:56:35;;;;;;;3.08;1.00;;;;;;;;;;5065249;28;20040;-80
2022/07/22 13:59:01;;;;;;;1.38;0.65;;;;;;;;;;5065636;28;20080;-80
2022/07/22 14:01:28;;;;;;;6.20;1.05;;;;;;;;;;5060811;28;20049;-81
2022/07/22 14:03:54;;;;;;;4.72;0.70;;;;;;;;;;5072175;28;20075;-82
2022/07/22 14:06:20;;;;;;;2.15;0.73;;;;;;;;;;5049096;28;20048;-81
2022/07/22 14:08:46;;;;;;;7.20;1.30;;;;;;;;;;5084003;28;20033;-80
2022/07/22 14:11:12;;;;;;;3.78;0.82;;;;;;;;;;5075353;28;20059;-81
2022/07/22 14:13:41;;;;;;;3.00;0.65;;;;;;;;;;5072544;28;20033;-80
2022/07/22 14:18:52;;;;;;;4.30;0.63;;;;;;;;;;5057633;28;20041;-81
2022/07/22 14:21:18;;;;;;;1.98;0.50;;;;;;;;;;5046387;28;20137;-80
2022/07/22 14:23:44;;;;;;;2.40;0.85;;;;;;;;;;5051173;28;20044;-81
2022/07/22 14:26:10;;;;;;;3.63;1.05;;;;;;;;;;5050737;28;20053;-80
2022/07/22 14:28:36;;;;;;;3.47;0.60;;;;;;;;;;5067832;28;20531;-81
2022/07/22 14:31:05;;;;;;;3.67;1.00;;;;;;;;;;5069953;28;20392;-80
2022/07/22 14:33:32;;;;;;;1.55;0.80;;;;;;;;;;5069251;28;20045;-81
2022/07/22 14:35:58;;;;;;;9.13;0.80;;;;;;;;;;5051497;28;20117;-81
2022/07/22 14:38:24;;;;;;;2.38;0.73;;;;;;;;;;5069340;28;20082;-81
2022/07/22 14:40:50;;;;;;;5.45;1.02;;;;;;;;;;5069945;28;20134;-81
2022/07/22 14:43:16;;;;;;;3.17;0.90;;;;;;;;;;5068457;28;20037;-81
2022/07/22 14:45:45;;;;;;;3.20;0.80;;;;;;;;;;5052240;28;20496;-80
2022/07/22 14:51:24;;;;;;;4.47;1.40;;;;;;;;;;5059965;28;20083;-80
2022/07/22 14:53:53;;;;;;;4.30;1.17;;;;;;;;;;5053690;28;20071;-80
2022/07/22 14:56:20;;;;;;;2.88;0.68;;;;;;;;;;5071529;28;20394;-80
2022/07/22 14:58:46;;;;;;;3.33;0.80;;;;;;;;;;5071439;28;20033;-81
2022/07/22 15:01:12;;;;;;;3.30;0.80;;;;;;;;;;5059735;28;20448;-81
2022/07/22 15:03:38;;;;;;;4.15;0.63;;;;;;;;;;5066720;28;20033;-81
2022/07/22 15:06:22;;;;;;;5.95;1.10;;;;;;;;;;5067130;28;20044;-81
2022/07/22 15:08:48;;;;;;;;;;;;;;;;;;5070011;28;20048;-81